Time;durP1;ratioP1;P1;durP2;ratioP2;P2;SDS_P1;SDS_P2;PMS_P1;PMS_P2;Temp;Humidity;BMP_temperature;BMP_pressure;BME280_temperature;BME280_humidity;BME280_pressure;Samples;Min_cycle;Max_cycle;Signal;HPM_P1;HPM_P2
2021/07/20 00:00:49;;;;;;;15.82;11.98;;;24.70;59.80;;;;;;5055414;28;20049;-46
2021/07/20 00:03:15;;;;;;;13.63;11.00;;;24.80;60.00;;;;;;5067823;28;20024;-46
2021/07/20 00:05:43;;;;;;;13.48;10.77;;;24.80;60.00;;;;;;5064896;28;20100;-47
2021/07/20 00:08:10;;;;;;;13.57;11.07;;;24.80;59.90;;;;;;5062362;28;20488;-47
2021/07/20 00:10:49;;;;;;;14.30;10.68;;;24.80;59.90;;;;;;5072589;28;20039;-46
2021/07/20 00:13:15;;;;;;;15.90;10.65;;;24.80;59.80;;;;;;5060151;28;20025;-56
2021/07/20 00:15:41;;;;;;;15.27;10.80;;;24.80;59.60;;;;;;5054127;28;20482;-46
2021/07/20 00:18:12;;;;;;;15.27;11.48;;;24.80;59.80;;;;;;5069753;28;20021;-46
2021/07/20 00:20:39;;;;;;;12.38;9.82;;;24.80;59.60;;;;;;5064005;28;20470;-46
2021/07/20 00:23:06;;;;;;;15.13;10.25;;;24.80;59.60;;;;;;5072895;28;20032;-45
2021/07/20 00:25:31;;;;;;;15.00;10.85;;;24.80;59.80;;;;;;5065867;28;20044;-62
2021/07/20 00:27:58;;;;;;;14.82;11.15;;;24.80;59.60;;;;;;5063146;28;20029;-47
2021/07/20 00:30:24;;;;;;;12.95;10.70;;;24.80;59.60;;;;;;5069850;28;20417;-48
2021/07/20 00:32:49;;;;;;;12.55;10.65;;;24.80;59.80;;;;;;5064448;28;20024;-50
2021/07/20 00:35:15;;;;;;;15.73;11.57;;;24.80;59.70;;;;;;5072495;28;20025;-48
2021/07/20 00:37:41;;;;;;;14.73;11.02;;;24.80;59.70;;;;;;5057919;28;20028;-49
2021/07/20 00:40:11;;;;;;;13.57;10.82;;;24.80;59.60;;;;;;5070242;28;20504;-49
2021/07/20 00:42:38;;;;;;;14.15;10.98;;;24.70;59.80;;;;;;5069332;28;20029;-47
2021/07/20 00:45:05;;;;;;;17.67;11.38;;;24.70;59.90;;;;;;5067870;28;20032;-52
2021/07/20 00:47:31;;;;;;;14.85;11.63;;;24.70;60.00;;;;;;5067507;28;20078;-61
2021/07/20 00:49:56;;;;;;;14.68;10.23;;;24.70;59.90;;;;;;5067716;28;20029;-47
2021/07/20 00:52:22;;;;;;;14.25;11.13;;;24.70;59.90;;;;;;5073081;28;20025;-47
2021/07/20 00:54:48;;;;;;;14.45;11.07;;;24.70;60.00;;;;;;5069465;28;20036;-46
2021/07/20 00:57:14;;;;;;;13.98;10.95;;;24.80;60.00;;;;;;5072064;28;20035;-48
2021/07/20 00:59:41;;;;;;;13.05;10.52;;;24.80;60.00;;;;;;5070094;28;20040;-51
2021/07/20 01:02:07;;;;;;;14.48;11.13;;;24.70;60.00;;;;;;5067668;28;20449;-53
2021/07/20 01:04:33;;;;;;;17.40;11.57;;;24.70;59.90;;;;;;5068039;28;20025;-61
2021/07/20 01:07:01;;;;;;;14.75;10.73;;;24.70;59.90;;;;;;5050416;28;20025;-48
2021/07/20 01:09:28;;;;;;;13.30;10.85;;;24.70;59.90;;;;;;5067874;28;20027;-47
2021/07/20 01:11:55;;;;;;;14.30;10.85;;;24.70;59.90;;;;;;5067821;28;20028;-46
2021/07/20 01:14:21;;;;;;;14.45;10.35;;;24.70;59.70;;;;;;5070109;28;20561;-46
2021/07/20 01:16:49;;;;;;;13.77;10.68;;;24.70;59.90;;;;;;5067435;28;20115;-46
2021/07/20 01:19:16;;;;;;;15.57;12.10;;;24.70;59.80;;;;;;5072293;28;20028;-46
2021/07/20 01:21:43;;;;;;;16.10;11.25;;;24.70;59.90;;;;;;5067166;28;20406;-50
2021/07/20 01:24:14;;;;;;;13.15;10.15;;;24.70;60.10;;;;;;5071042;28;20021;-46
2021/07/20 01:26:40;;;;;;;13.23;10.70;;;24.70;59.90;;;;;;5069174;28;20029;-51
2021/07/20 01:29:08;;;;;;;13.88;10.52;;;24.70;59.90;;;;;;5069773;28;20079;-45
2021/07/20 01:31:38;;;;;;;13.98;10.27;;;24.70;59.80;;;;;;5067491;28;20032;-64
2021/07/20 01:34:06;;;;;;;13.45;10.25;;;24.70;59.80;;;;;;5068123;28;20530;-46
2021/07/20 01:36:33;;;;;;;14.52;10.88;;;24.70;59.80;;;;;;5065975;28;20028;-60
2021/07/20 01:39:03;;;;;;;13.80;10.90;;;24.70;59.90;;;;;;5067592;28;20052;-50
2021/07/20 01:41:30;;;;;;;14.23;10.80;;;24.70;59.80;;;;;;5067279;28;20040;-46
2021/07/20 01:44:04;;;;;;;13.15;9.93;;;24.70;59.70;;;;;;5067022;28;20029;-48
2021/07/20 01:46:32;;;;;;;14.75;10.93;;;24.70;59.80;;;;;;5067458;28;20028;-61
2021/07/20 01:49:00;;;;;;;12.80;9.77;;;24.70;59.70;;;;;;5070852;28;20042;-46
2021/07/20 01:51:26;;;;;;;13.75;10.32;;;24.70;59.80;;;;;;5068873;28;20158;-47
2021/07/20 01:53:53;;;;;;;12.68;10.10;;;24.70;59.60;;;;;;5059611;28;20025;-46
2021/07/20 01:56:20;;;;;;;14.32;10.30;;;24.70;59.50;;;;;;5060919;28;20482;-47
2021/07/20 01:58:46;;;;;;;13.05;10.10;;;24.70;59.60;;;;;;5058388;28;20106;-47
2021/07/20 02:01:36;;;;;;;13.55;10.77;;;24.70;59.50;;;;;;5057849;28;20478;-46
2021/07/20 02:09:24;;;;;;;12.90;10.35;;;24.70;59.60;;;;;;5059815;28;20090;-45
2021/07/20 02:11:53;;;;;;;14.48;10.77;;;24.70;59.50;;;;;;5056675;28;20036;-46
2021/07/20 02:14:23;;;;;;;13.60;10.38;;;24.70;59.60;;;;;;5054715;28;20067;-46
2021/07/20 02:16:50;;;;;;;12.60;9.93;;;24.70;59.50;;;;;;5066510;28;20083;-45
2021/07/20 02:19:15;;;;;;;12.30;10.13;;;24.70;59.50;;;;;;5060048;28;20029;-50
2021/07/20 02:21:47;;;;;;;14.95;10.13;;;24.70;59.40;;;;;;5058405;28;20024;-46
2021/07/20 02:24:16;;;;;;;13.80;10.35;;;24.70;59.50;;;;;;5052075;28;20127;-46
2021/07/20 02:26:42;;;;;;;15.27;9.98;;;24.70;59.30;;;;;;5071492;28;20035;-46
2021/07/20 02:29:11;;;;;;;14.25;10.93;;;24.70;60.00;;;;;;5069736;28;20089;-46
2021/07/20 02:31:38;;;;;;;13.88;10.48;;;24.70;59.50;;;;;;5062137;28;20095;-46
2021/07/20 02:34:04;;;;;;;14.43;10.32;;;24.70;59.20;;;;;;5062803;28;20024;-46
2021/07/20 02:36:31;;;;;;;13.88;9.82;;;24.70;59.30;;;;;;5062425;28;20099;-46
2021/07/20 02:38:57;;;;;;;12.52;9.65;;;24.70;59.40;;;;;;5051625;28;20120;-46
2021/07/20 02:41:25;;;;;;;15.45;10.88;;;24.70;59.30;;;;;;5064399;28;20056;-45
2021/07/20 02:43:52;;;;;;;13.35;10.55;;;24.60;59.30;;;;;;5061939;28;20066;-47
2021/07/20 02:46:18;;;;;;;14.13;10.20;;;24.60;59.20;;;;;;5060577;28;20056;-46
2021/07/20 02:48:45;;;;;;;12.85;10.27;;;24.60;59.10;;;;;;5055428;28;20447;-46
2021/07/20 02:51:11;;;;;;;14.75;10.27;;;24.70;59.10;;;;;;5062122;28;20403;-58
2021/07/20 02:53:39;;;;;;;15.20;10.40;;;24.60;59.10;;;;;;5060820;28;20025;-56
2021/07/20 02:56:07;;;;;;;13.95;9.45;;;24.60;59.20;;;;;;5068744;28;20033;-47
2021/07/20 02:58:34;;;;;;;13.32;9.50;;;24.70;59.10;;;;;;5069257;28;20090;-58
2021/07/20 03:01:01;;;;;;;12.02;9.55;;;24.60;59.00;;;;;;5069715;28;20055;-48
2021/07/20 03:03:26;;;;;;;15.30;11.02;;;24.60;59.10;;;;;;5063175;28;20054;-46
2021/07/20 03:05:54;;;;;;;12.68;9.75;;;24.60;59.00;;;;;;5054806;28;20390;-48
2021/07/20 03:08:24;;;;;;;13.05;9.73;;;24.60;59.20;;;;;;5061873;28;20033;-55
2021/07/20 03:10:52;;;;;;;12.70;9.38;;;24.60;59.20;;;;;;5061800;28;20116;-47
2021/07/20 03:13:19;;;;;;;14.68;9.95;;;24.60;59.10;;;;;;5055821;28;20089;-49
2021/07/20 03:15:44;;;;;;;14.68;9.57;;;24.60;59.00;;;;;;5068371;28;20462;-47
2021/07/20 03:18:12;;;;;;;12.38;9.35;;;24.60;59.10;;;;;;5070514;28;20029;-47
2021/07/20 03:20:40;;;;;;;13.60;9.55;;;24.60;59.10;;;;;;5056785;28;20321;-59
2021/07/20 03:23:07;;;;;;;13.27;10.23;;;24.60;59.00;;;;;;5060666;28;20037;-46
2021/07/20 03:25:33;;;;;;;11.50;9.38;;;24.60;59.00;;;;;;5060253;28;20025;-46
2021/07/20 03:28:00;;;;;;;12.88;10.32;;;24.60;59.10;;;;;;5057665;28;20032;-47
2021/07/20 03:30:29;;;;;;;13.60;9.95;;;24.60;59.00;;;;;;5061827;28;20099;-46
2021/07/20 03:32:55;;;;;;;12.95;9.68;;;24.60;58.90;;;;;;5067444;28;20111;-48
2021/07/20 03:35:22;;;;;;;13.13;9.57;;;24.60;58.90;;;;;;5059563;28;20082;-49
2021/07/20 03:37:48;;;;;;;11.82;9.15;;;24.60;59.10;;;;;;5064967;28;20389;-52
2021/07/20 03:40:15;;;;;;;14.07;10.30;;;24.60;59.00;;;;;;5065069;28;20463;-49
2021/07/20 03:42:41;;;;;;;12.25;9.55;;;24.60;58.80;;;;;;5068988;28;20036;-49
2021/07/20 03:45:09;;;;;;;14.25;9.32;;;24.60;58.70;;;;;;5062277;28;20056;-47
2021/07/20 03:47:41;;;;;;;12.23;9.00;;;24.60;58.90;;;;;;5067615;28;20749;-61
2021/07/20 03:50:08;;;;;;;12.30;9.38;;;24.60;58.90;;;;;;5068833;28;20147;-49
2021/07/20 03:52:36;;;;;;;12.10;8.82;;;24.60;58.80;;;;;;5057895;28;20028;-47
2021/07/20 03:55:03;;;;;;;12.82;9.48;;;24.60;58.90;;;;;;5066607;28;20098;-49
2021/07/20 03:57:29;;;;;;;13.38;9.90;;;24.60;58.80;;;;;;5064477;28;20094;-47
2021/07/20 03:59:58;;;;;;;11.25;9.20;;;24.60;58.80;;;;;;5064916;28;20056;-47
2021/07/20 04:02:28;;;;;;;12.10;9.80;;;24.60;58.80;;;;;;5071091;28;20387;-46
2021/07/20 04:04:57;;;;;;;11.52;8.60;;;24.60;58.70;;;;;;5066585;28;20032;-46
2021/07/20 04:07:23;;;;;;;11.88;9.20;;;24.60;58.80;;;;;;5067142;28;20035;-46
2021/07/20 04:09:50;;;;;;;14.13;9.32;;;24.60;58.70;;;;;;5066108;28;20033;-46
2021/07/20 04:12:15;;;;;;;13.57;9.02;;;24.60;58.70;;;;;;5070761;28;20112;-45
2021/07/20 04:14:43;;;;;;;13.00;9.40;;;24.60;58.60;;;;;;5053443;28;20117;-46
2021/07/20 04:17:11;;;;;;;10.88;8.38;;;24.60;58.50;;;;;;5072527;28;20032;-47
2021/07/20 04:19:37;;;;;;;11.68;9.23;;;24.60;58.40;;;;;;5058472;28;20029;-61
2021/07/20 04:22:04;;;;;;;14.68;8.70;;;24.60;58.50;;;;;;5066196;28;20055;-46
2021/07/20 04:24:30;;;;;;;12.05;8.68;;;24.60;58.40;;;;;;5071582;28;20108;-45
2021/07/20 04:26:57;;;;;;;11.85;8.95;;;24.60;58.50;;;;;;5059762;28;20728;-45
2021/07/20 04:29:23;;;;;;;12.73;9.20;;;24.60;58.50;;;;;;5070314;28;20410;-46
2021/07/20 04:31:54;;;;;;;12.38;9.68;;;24.60;58.50;;;;;;5079249;28;20120;-46
2021/07/20 04:34:20;;;;;;;11.80;8.70;;;24.60;58.50;;;;;;5064732;28;20032;-45
2021/07/20 04:36:47;;;;;;;13.57;9.50;;;24.60;58.40;;;;;;5043244;28;20394;-46
2021/07/20 04:39:13;;;;;;;13.38;9.13;;;24.60;58.40;;;;;;5067807;28;20064;-46
2021/07/20 04:41:41;;;;;;;12.30;9.10;;;24.60;58.30;;;;;;5048122;28;20060;-65
2021/07/20 04:44:07;;;;;;;12.18;8.82;;;24.60;58.90;;;;;;5061909;28;20541;-46
2021/07/20 04:46:34;;;;;;;11.88;8.80;;;24.60;58.30;;;;;;5077949;28;20036;-46
2021/07/20 04:49:02;;;;;;;11.70;8.85;;;24.60;58.40;;;;;;5074004;28;20210;-57
2021/07/20 04:51:30;;;;;;;13.25;9.77;;;24.60;58.60;;;;;;5059999;28;20162;-46
2021/07/20 04:53:56;;;;;;;11.63;8.40;;;24.60;58.40;;;;;;5065510;28;20029;-48
2021/07/20 04:56:22;;;;;;;11.68;8.80;;;24.60;58.40;;;;;;5057017;28;20040;-46
2021/07/20 04:58:48;;;;;;;11.50;8.35;;;24.60;58.30;;;;;;5069728;28;20028;-52
2021/07/20 05:01:14;;;;;;;11.88;9.00;;;24.60;58.40;;;;;;5068162;28;20417;-47
2021/07/20 05:03:41;;;;;;;11.10;8.25;;;24.60;58.30;;;;;;5072068;28;20103;-64
2021/07/20 05:06:08;;;;;;;10.70;8.40;;;24.60;58.40;;;;;;5064020;28;20100;-47
2021/07/20 05:08:35;;;;;;;10.75;8.18;;;24.60;58.30;;;;;;5069471;28;20028;-46
2021/07/20 05:11:01;;;;;;;11.07;8.07;;;24.60;58.20;;;;;;5056821;28;20140;-49
2021/07/20 05:13:27;;;;;;;13.05;9.05;;;24.60;58.30;;;;;;5061891;28;20103;-48
2021/07/20 05:15:59;;;;;;;10.93;8.27;;;24.60;58.20;;;;;;5059346;28;20455;-49
2021/07/20 05:18:25;;;;;;;11.65;8.27;;;24.60;58.10;;;;;;5071046;28;20035;-47
2021/07/20 05:20:57;;;;;;;13.23;8.55;;;24.60;58.20;;;;;;5070618;28;20377;-49
2021/07/20 05:23:23;;;;;;;10.55;8.35;;;24.60;58.10;;;;;;5068947;28;20031;-46
2021/07/20 05:25:53;;;;;;;10.63;8.13;;;24.60;58.20;;;;;;5057682;28;20047;-46
2021/07/20 05:28:19;;;;;;;11.43;8.50;;;24.60;58.20;;;;;;5063617;28;20089;-46
2021/07/20 05:30:47;;;;;;;11.18;8.02;;;24.60;58.20;;;;;;5060344;28;20031;-46
2021/07/20 05:33:13;;;;;;;9.95;7.95;;;24.60;58.00;;;;;;5060529;28;20025;-47
2021/07/20 05:35:39;;;;;;;13.60;8.70;;;24.60;58.00;;;;;;5047707;28;20366;-60
2021/07/20 05:38:05;;;;;;;10.23;8.13;;;24.60;58.00;;;;;;5053702;28;20484;-47
2021/07/20 05:40:31;;;;;;;11.60;8.98;;;24.60;57.90;;;;;;5059008;28;20064;-47
2021/07/20 05:42:58;;;;;;;13.73;8.77;;;24.60;57.70;;;;;;5056847;28;20480;-57
2021/07/20 05:45:25;;;;;;;11.25;7.93;;;24.60;57.70;;;;;;5058078;28;20021;-46
2021/07/20 05:47:51;;;;;;;13.45;8.63;;;24.60;57.20;;;;;;5059841;28;20482;-48
2021/07/20 05:50:18;;;;;;;12.82;8.38;;;24.60;57.10;;;;;;5056317;28;20059;-46
2021/07/20 05:52:50;;;;;;;12.65;8.35;;;24.60;57.30;;;;;;5066121;28;20024;-49
2021/07/20 05:55:18;;;;;;;12.73;7.82;;;24.60;57.00;;;;;;5069161;28;20032;-50
2021/07/20 05:57:47;;;;;;;13.27;8.57;;;24.60;56.90;;;;;;5057240;28;20478;-47
2021/07/20 06:00:15;;;;;;;10.30;7.50;;;24.60;56.60;;;;;;5058168;28;20136;-47
2021/07/20 06:02:41;;;;;;;11.10;7.43;;;24.60;56.40;;;;;;5069982;28;20110;-59
2021/07/20 06:05:08;;;;;;;17.15;8.18;;;24.60;56.30;;;;;;5071157;28;20066;-47
2021/07/20 06:07:37;;;;;;;14.13;7.40;;;24.60;56.30;;;;;;5045778;28;20032;-51
2021/07/20 06:10:03;;;;;;;17.67;8.13;;;24.60;57.10;;;;;;5057585;28;20024;-48
2021/07/20 06:12:31;;;;;;;13.50;8.98;;;24.40;55.90;;;;;;5069896;28;20025;-49
2021/07/20 06:14:58;;;;;;;15.05;9.23;;;24.20;54.60;;;;;;5056525;28;20029;-53
2021/07/20 06:17:24;;;;;;;16.17;8.43;;;24.00;54.30;;;;;;5049311;28;20074;-50
2021/07/20 06:19:55;;;;;;;16.23;9.02;;;23.70;55.10;;;;;;5058907;28;20386;-50
2021/07/20 06:22:30;;;;;;;13.02;9.20;;;23.60;55.20;;;;;;5035042;28;20033;-46
2021/07/20 06:24:57;;;;;;;12.70;8.63;;;23.50;55.00;;;;;;5067725;28;20055;-48
2021/07/20 06:27:25;;;;;;;15.15;9.40;;;23.40;55.60;;;;;;5038612;28;20021;-51
2021/07/20 06:29:56;;;;;;;11.77;8.15;;;23.40;55.70;;;;;;5059306;28;20033;-51
2021/07/20 06:32:23;;;;;;;12.85;8.75;;;23.40;55.70;;;;;;5069277;28;20025;-48
2021/07/20 06:34:49;;;;;;;12.82;7.43;;;23.30;55.80;;;;;;5060978;28;20035;-50
2021/07/20 06:37:18;;;;;;;13.07;8.15;;;23.20;56.00;;;;;;5064744;28;20029;-55
2021/07/20 06:39:44;;;;;;;22.10;9.13;;;23.20;56.10;;;;;;5052707;28;20048;-63
2021/07/20 06:42:12;;;;;;;16.73;9.30;;;23.20;56.70;;;;;;5054129;28;20492;-47
2021/07/20 06:44:39;;;;;;;12.43;8.80;;;23.20;56.40;;;;;;5064984;28;20020;-50
2021/07/20 06:47:05;;;;;;;17.15;8.90;;;23.10;56.50;;;;;;5062725;28;20566;-50
2021/07/20 06:49:35;;;;;;;18.60;9.20;;;23.10;56.60;;;;;;5058720;28;20454;-47
2021/07/20 06:52:00;;;;;;;13.27;8.70;;;23.10;56.60;;;;;;5051909;28;20029;-46
2021/07/20 06:54:26;;;;;;;16.13;8.48;;;23.10;56.60;;;;;;5065547;28;20024;-47
2021/07/20 06:56:54;;;;;;;14.63;9.50;;;23.10;56.40;;;;;;5057956;28;20025;-47
2021/07/20 06:59:21;;;;;;;17.70;8.75;;;23.20;56.30;;;;;;5059276;28;20029;-51
2021/07/20 07:01:48;;;;;;;13.82;8.80;;;23.20;56.20;;;;;;5034298;28;20114;-52
2021/07/20 07:04:31;;;;;;;14.05;8.55;;;23.10;56.80;;;;;;5054692;28;20029;-49
2021/07/20 07:06:59;;;;;;;14.73;8.80;;;23.10;56.60;;;;;;5061444;28;20112;-47
2021/07/20 07:09:30;;;;;;;11.80;8.77;;;23.20;56.40;;;;;;5067663;28;20028;-47
2021/07/20 07:11:58;;;;;;;15.13;8.73;;;23.10;56.90;;;;;;5059297;28;20056;-47
2021/07/20 07:14:24;;;;;;;15.00;9.27;;;23.10;57.00;;;;;;5071418;28;20024;-49
2021/07/20 07:16:53;;;;;;;14.23;8.73;;;23.00;57.10;;;;;;5065434;28;20032;-47
2021/07/20 07:19:20;;;;;;;25.67;10.40;;;23.10;57.30;;;;;;5060969;28;20041;-52
2021/07/20 07:21:48;;;;;;;13.90;8.90;;;23.10;56.90;;;;;;5063353;28;20036;-61
2021/07/20 07:24:15;;;;;;;14.52;8.77;;;23.20;56.70;;;;;;5070394;28;20082;-47
2021/07/20 07:26:41;;;;;;;14.93;8.18;;;23.20;57.00;;;;;;5061764;28;20471;-48
2021/07/20 07:29:12;;;;;;;15.48;8.90;;;23.20;56.60;;;;;;5065162;28;20060;-48
2021/07/20 07:31:39;;;;;;;16.83;8.88;;;23.30;56.60;;;;;;5070604;28;20108;-50
2021/07/20 07:34:05;;;;;;;12.88;8.23;;;23.30;56.50;;;;;;5067243;28;20123;-47
2021/07/20 07:36:33;;;;;;;15.65;8.63;;;23.20;56.90;;;;;;5069379;28;20525;-51
2021/07/20 07:39:05;;;;;;;14.05;8.70;;;23.20;57.10;;;;;;5055849;28;20048;-48
2021/07/20 07:41:37;;;;;;;11.80;7.95;;;23.20;57.10;;;;;;5064054;28;20033;-57
2021/07/20 07:44:04;;;;;;;13.07;7.75;;;23.00;57.30;;;;;;5045733;28;20378;-47
2021/07/20 07:46:32;;;;;;;17.85;8.40;;;23.00;57.30;;;;;;5057731;28;20063;-55
2021/07/20 07:48:59;;;;;;;14.43;8.38;;;23.10;57.00;;;;;;5070223;28;20033;-48
2021/07/20 07:51:25;;;;;;;14.68;8.05;;;23.10;57.10;;;;;;5059626;28;20021;-47
2021/07/20 07:53:58;;;;;;;12.05;8.50;;;23.10;56.90;;;;;;5061359;28;20029;-47
2021/07/20 07:56:30;;;;;;;13.30;8.20;;;23.20;57.10;;;;;;5068282;28;20105;-52
2021/07/20 07:58:58;;;;;;;12.38;7.50;;;23.20;57.30;;;;;;5073665;28;20024;-47
2021/07/20 08:01:27;;;;;;;12.85;8.35;;;23.20;57.10;;;;;;5074750;28;20044;-48
2021/07/20 08:03:54;;;;;;;13.75;8.20;;;23.20;56.90;;;;;;5073611;28;20043;-48
2021/07/20 08:06:22;;;;;;;14.35;8.40;;;23.20;56.50;;;;;;5074532;28;20024;-49
2021/07/20 08:08:51;;;;;;;12.95;7.00;;;23.20;56.90;;;;;;5073578;28;20032;-62
2021/07/20 08:11:18;;;;;;;12.85;7.60;;;23.30;57.10;;;;;;5074206;28;20036;-47
2021/07/20 08:13:44;;;;;;;10.95;7.95;;;23.30;56.00;;;;;;5075668;28;20363;-47
2021/07/20 08:16:13;;;;;;;12.73;7.53;;;23.30;56.00;;;;;;5094123;28;20043;-48
2021/07/20 08:18:40;;;;;;;14.23;7.78;;;23.30;56.20;;;;;;5065320;28;20481;-48
2021/07/20 08:21:07;;;;;;;14.63;7.57;;;23.30;55.90;;;;;;5073980;28;20032;-50
2021/07/20 08:23:34;;;;;;;13.25;7.50;;;23.30;55.40;;;;;;5080257;28;20032;-48
2021/07/20 08:26:06;;;;;;;14.70;7.47;;;23.30;55.70;;;;;;5085245;28;20483;-48
2021/07/20 08:28:45;;;;;;;11.80;6.97;;;23.30;55.80;;;;;;5058313;28;20037;-48
2021/07/20 08:31:13;;;;;;;14.60;7.15;;;23.30;55.40;;;;;;5054918;28;20025;-48
2021/07/20 08:33:42;;;;;;;10.52;6.72;;;23.20;55.60;;;;;;5066033;28;20033;-48
2021/07/20 08:36:10;;;;;;;13.60;7.38;;;23.30;56.20;;;;;;5056363;28;20044;-49
2021/07/20 08:38:36;;;;;;;10.45;6.47;;;23.30;55.70;;;;;;5066500;28;20460;-47
2021/07/20 08:41:09;;;;;;;13.52;6.68;;;23.30;55.30;;;;;;5069182;28;20470;-49
2021/07/20 08:43:59;;;;;;;12.68;6.47;;;23.40;55.10;;;;;;5059130;28;20021;-51
2021/07/20 08:46:40;;;;;;;12.15;6.93;;;23.40;54.90;;;;;;5067902;28;20040;-51
2021/07/20 08:49:24;;;;;;;14.50;7.78;;;23.40;55.50;;;;;;5061398;28;20067;-49
2021/07/20 08:52:07;;;;;;;11.98;7.30;;;23.40;55.60;;;;;;5066430;28;20029;-60
2021/07/20 08:54:58;;;;;;;11.18;6.75;;;23.40;55.60;;;;;;5056029;28;20393;-53
2021/07/20 08:57:41;;;;;;;15.50;8.00;;;23.40;55.80;;;;;;5063565;28;20052;-51
2021/07/20 09:00:11;;;;;;;10.10;6.93;;;23.40;55.70;;;;;;5064371;28;20049;-48
2021/07/20 09:02:46;;;;;;;14.05;7.13;;;23.40;55.40;;;;;;5067758;28;20085;-48
2021/07/20 09:05:12;;;;;;;11.43;7.63;;;23.40;55.10;;;;;;5062559;28;20028;-47
2021/07/20 09:07:57;;;;;;;12.27;7.28;;;23.40;55.40;;;;;;5060156;28;20031;-50
2021/07/20 09:10:28;;;;;;;11.75;7.25;;;23.40;55.20;;;;;;5057164;28;20114;-50
2021/07/20 09:12:54;;;;;;;12.50;7.15;;;23.40;55.30;;;;;;5059484;28;20394;-50
2021/07/20 09:15:21;;;;;;;10.95;7.10;;;23.40;55.10;;;;;;5069507;28;20033;-48
2021/07/20 09:18:09;;;;;;;9.65;6.57;;;23.50;55.40;;;;;;5055258;28;20025;-47
2021/07/20 09:20:38;;;;;;;14.52;7.10;;;23.60;54.40;;;;;;5061366;28;20466;-48
2021/07/20 09:23:14;;;;;;;11.93;6.82;;;23.60;54.50;;;;;;5067819;28;20045;-46
2021/07/20 09:25:44;;;;;;;12.93;7.72;;;23.60;54.10;;;;;;5058862;28;20020;-49
2021/07/20 09:28:25;;;;;;;13.00;6.85;;;23.60;53.80;;;;;;5060264;28;20021;-47
2021/07/20 09:30:53;;;;;;;12.35;7.28;;;23.60;53.30;;;;;;5054056;28;20086;-62
2021/07/20 09:33:54;;;;;;;11.20;7.50;;;23.60;53.60;;;;;;5062756;28;20028;-48
2021/07/20 09:36:40;;;;;;;11.43;7.97;;;23.60;53.80;;;;;;5066756;28;20028;-51
2021/07/20 09:39:29;;;;;;;14.95;8.27;;;23.60;54.10;;;;;;5069264;28;20127;-46
2021/07/20 09:42:06;;;;;;;10.55;7.35;;;23.60;54.00;;;;;;5069553;28;20118;-53
2021/07/20 09:44:47;;;;;;;11.77;8.20;;;23.70;54.00;;;;;;5065873;28;20027;-52
2021/07/20 09:47:25;;;;;;;16.20;9.23;;;23.70;54.00;;;;;;5069813;28;20752;-48
2021/07/20 09:50:10;;;;;;;15.57;9.15;;;23.70;53.80;;;;;;5053764;28;20032;-62
2021/07/20 09:52:39;;;;;;;12.23;8.18;;;23.70;53.70;;;;;;5063717;28;20042;-49
2021/07/20 09:55:19;;;;;;;13.13;7.75;;;23.60;53.60;;;;;;5062676;28;20490;-52
2021/07/20 09:58:23;;;;;;;12.20;8.07;;;23.60;54.00;;;;;;5068974;28;20385;-50
2021/07/20 10:01:03;;;;;;;15.68;8.57;;;23.60;54.10;;;;;;4985627;28;20060;-52
2021/07/20 10:04:01;;;;;;;13.48;7.82;;;23.60;53.80;;;;;;5060922;28;20031;-50
2021/07/20 10:07:03;;;;;;;17.52;8.52;;;23.50;53.90;;;;;;5072613;28;20029;-50
2021/07/20 10:10:02;;;;;;;15.60;7.82;;;23.60;54.00;;;;;;5061028;28;20473;-49
2021/07/20 10:13:06;;;;;;;12.68;7.05;;;23.80;54.00;;;;;;5067449;28;20390;-48
2021/07/20 10:16:08;;;;;;;11.27;7.43;;;23.90;54.90;;;;;;5059956;28;20021;-54
2021/07/20 10:18:45;;;;;;;12.38;7.43;;;24.00;54.80;;;;;;5009386;28;20044;-51
2021/07/20 10:21:20;;;;;;;15.98;8.32;;;24.10;54.20;;;;;;5071436;28;20034;-47
2021/07/20 10:24:00;;;;;;;14.90;9.15;;;24.20;54.40;;;;;;5071665;28;20032;-46
2021/07/20 10:26:48;;;;;;;14.27;7.53;;;24.20;54.50;;;;;;5062385;28;20037;-46
2021/07/20 10:29:16;;;;;;;13.82;8.80;;;24.20;55.30;;;;;;5056959;28;20024;-56
2021/07/20 10:31:57;;;;;;;13.00;7.90;;;24.20;54.90;;;;;;5054508;28;20057;-46
2021/07/20 10:34:28;;;;;;;15.02;8.45;;;24.30;54.80;;;;;;5069835;28;20060;-46
2021/07/20 10:37:14;;;;;;;10.90;7.13;;;24.20;54.50;;;;;;5058117;28;20028;-59
2021/07/20 10:39:45;;;;;;;11.68;7.93;;;24.30;54.90;;;;;;5061393;28;20124;-46
2021/07/20 10:42:21;;;;;;;12.67;7.50;;;24.30;54.80;;;;;;5063533;28;20028;-47
2021/07/20 10:45:08;;;;;;;10.88;6.97;;;24.30;54.70;;;;;;5063128;28;20033;-47
2021/07/20 10:47:45;;;;;;;10.15;7.03;;;24.30;54.70;;;;;;5061536;28;20508;-46
2021/07/20 10:50:18;;;;;;;13.18;7.40;;;24.30;54.70;;;;;;5066779;28;20039;-51
2021/07/20 10:52:46;;;;;;;11.57;7.25;;;24.30;54.60;;;;;;5052554;28;20479;-50
2021/07/20 10:55:24;;;;;;;10.98;7.57;;;24.30;54.80;;;;;;5059373;28;20045;-48
2021/07/20 10:58:00;;;;;;;8.55;6.15;;;24.30;54.80;;;;;;5059910;28;20028;-51
2021/07/20 11:00:36;;;;;;;11.77;6.78;;;24.30;54.90;;;;;;5061821;28;20037;-47
2021/07/20 11:03:21;;;;;;;11.02;7.07;;;24.30;55.50;;;;;;5053585;28;20057;-47
2021/07/20 11:05:50;;;;;;;11.02;7.13;;;24.30;55.50;;;;;;5067047;28;20028;-50
2021/07/20 11:08:16;;;;;;;10.20;7.47;;;24.30;55.60;;;;;;5035764;28;20021;-47
2021/07/20 11:10:48;;;;;;;10.80;7.40;;;24.30;55.60;;;;;;5054190;28;20074;-48
2021/07/20 11:13:27;;;;;;;;;;;24.30;55.50;;;;;;5070037;28;20169;-47
2021/07/20 11:15:54;;;;;;;11.48;6.13;;;24.30;55.50;;;;;;5069245;28;19917;-63
2021/07/20 11:18:28;;;;;;;9.05;6.75;;;24.30;55.40;;;;;;5072628;28;20032;-46
2021/07/20 11:20:59;;;;;;;12.32;6.65;;;24.30;55.40;;;;;;5076786;28;20033;-62
2021/07/20 11:23:26;;;;;;;11.43;6.78;;;24.30;55.50;;;;;;5071249;28;20078;-46
2021/07/20 11:25:52;;;;;;;6.65;5.75;;;24.30;55.50;;;;;;5071111;28;20035;-46
2021/07/20 11:28:19;;;;;;;9.38;6.28;;;24.30;55.60;;;;;;5078841;28;20036;-46
2021/07/20 11:30:48;;;;;;;9.73;6.70;;;24.40;55.60;;;;;;5073108;28;20377;-46
2021/07/20 11:33:24;;;;;;;9.50;6.75;;;24.30;55.60;;;;;;5083827;28;20025;-46
2021/07/20 11:35:53;;;;;;;8.35;6.30;;;24.30;55.60;;;;;;5071546;28;20025;-48
2021/07/20 11:38:24;;;;;;;10.85;6.88;;;24.30;55.70;;;;;;5071678;28;20028;-47
2021/07/20 11:41:32;;;;;;;9.15;6.18;;;24.30;55.70;;;;;;5071107;28;20090;-46
2021/07/20 11:44:03;;;;;;;9.35;6.85;;;24.40;55.80;;;;;;5070175;28;20037;-56
2021/07/20 11:46:44;;;;;;;8.23;5.57;;;24.40;55.80;;;;;;5070751;28;20063;-51
2021/07/20 11:49:20;;;;;;;9.52;6.82;;;24.30;55.80;;;;;;5070276;28;20036;-47
2021/07/20 11:51:50;;;;;;;8.63;6.05;;;24.40;55.90;;;;;;5071182;28;20028;-47
2021/07/20 11:54:53;;;;;;;9.07;6.15;;;24.40;56.00;;;;;;5052419;28;20042;-46
2021/07/20 11:57:53;;;;;;;8.27;5.43;;;24.40;56.10;;;;;;5076216;28;20127;-46
2021/07/20 12:00:43;;;;;;;11.95;6.38;;;24.40;56.10;;;;;;5076983;28;20052;-45
2021/07/20 12:03:15;;;;;;;7.18;5.65;;;24.40;56.10;;;;;;5068996;28;20032;-48
2021/07/20 12:05:40;;;;;;;;;;;24.40;56.20;;;;;;5055515;28;20025;-50
2021/07/20 12:08:41;;;;;;;6.90;4.93;;;24.40;56.30;;;;;;5069051;28;19908;-46
2021/07/20 12:11:38;;;;;;;7.75;5.47;;;24.40;56.40;;;;;;5005470;28;20057;-46
2021/07/20 12:14:06;;;;;;;7.13;5.10;;;24.40;56.40;;;;;;5057864;28;20614;-47
2021/07/20 12:16:38;;;;;;;8.30;5.78;;;24.40;56.50;;;;;;5057584;28;20079;-46
2021/07/20 12:19:04;;;;;;;8.52;6.47;;;24.40;56.50;;;;;;5062824;28;20040;-46
2021/07/20 12:21:32;;;;;;;6.40;5.13;;;24.40;56.50;;;;;;5062309;28;20036;-46
2021/07/20 12:24:05;;;;;;;6.93;5.47;;;24.40;56.50;;;;;;5064820;28;20043;-63
2021/07/20 12:26:31;;;;;;;8.38;5.03;;;24.40;56.50;;;;;;5055974;28;20025;-46
2021/07/20 12:28:57;;;;;;;8.25;5.28;;;24.40;56.60;;;;;;5067263;28;20116;-64
2021/07/20 12:31:28;;;;;;;7.32;5.05;;;24.40;56.60;;;;;;5068915;28;20036;-46
2021/07/20 12:33:54;;;;;;;7.22;5.40;;;24.40;56.70;;;;;;5057536;28;20112;-47
2021/07/20 12:36:22;;;;;;;5.45;4.25;;;24.40;56.70;;;;;;5063624;28;20029;-47
2021/07/20 12:39:23;;;;;;;9.50;5.05;;;24.40;56.70;;;;;;5057970;28;20414;-46
2021/07/20 12:41:52;;;;;;;6.47;4.57;;;24.50;56.90;;;;;;5064472;28;20087;-50
2021/07/20 12:44:18;;;;;;;8.45;4.85;;;24.40;57.40;;;;;;5064307;28;20032;-46
2021/07/20 12:46:45;;;;;;;6.07;4.93;;;24.40;56.80;;;;;;5075094;28;20118;-46
2021/07/20 12:49:13;;;;;;;5.75;4.43;;;24.40;56.90;;;;;;5070401;28;20101;-46
2021/07/20 12:51:46;;;;;;;6.82;4.78;;;24.40;56.90;;;;;;5071669;28;20370;-47
2021/07/20 12:54:12;;;;;;;6.28;4.35;;;24.40;56.90;;;;;;5052805;28;20029;-54
2021/07/20 12:56:38;;;;;;;6.03;4.90;;;24.50;57.00;;;;;;5091148;28;20503;-48
2021/07/20 12:59:05;;;;;;;6.60;4.75;;;24.50;57.00;;;;;;5086394;28;20032;-46